createdAt,value
2022-08-20T00:02:16.604Z,101143.66
2022-08-20T00:04:45.404Z,101138.09
2022-08-20T00:07:14.022Z,101135.91
2022-08-20T00:09:43.013Z,101127.69
2022-08-20T00:12:13.773Z,101132.38
2022-08-20T00:14:43.621Z,101140.09
2022-08-20T00:17:11.965Z,101133.75
2022-08-20T00:19:40.496Z,101135.28
2022-08-20T00:22:08.832Z,101142.31
2022-08-20T00:24:37.212Z,101131.78
2022-08-20T00:27:06.055Z,101129.88
2022-08-20T00:29:34.411Z,101130.13
2022-08-20T00:32:04.485Z,101132.75
2022-08-20T00:34:32.855Z,101134.63
2022-08-20T00:37:01.208Z,101139.34
2022-08-20T00:39:29.669Z,101129.06
2022-08-20T00:41:58.069Z,101133.16
2022-08-20T00:44:26.375Z,101131.69
2022-08-20T00:46:55.228Z,101127.84
2022-08-20T00:49:28.243Z,101135.72
2022-08-20T00:52:02.280Z,101132.72
2022-08-20T00:54:35.356Z,101131.34
2022-08-20T00:57:10.661Z,101130.09
2022-08-20T00:59:41.552Z,101126.34
2022-08-20T01:02:17.709Z,101122.91
2022-08-20T01:04:50.170Z,101129.34
2022-08-20T01:07:20.590Z,101130.91
2022-08-20T01:09:59.077Z,101126.41
2022-08-20T01:12:30.092Z,101127.22
2022-08-20T01:15:01.401Z,101129.53
2022-08-20T01:17:36.400Z,101127.03
2022-08-20T01:20:11.718Z,101129.75
2022-08-20T01:23:08.275Z,101134.59
2022-08-20T01:25:48.706Z,101142.38
2022-08-20T01:28:22.207Z,101141.84
2022-08-20T01:30:50.967Z,101144.97
2022-08-20T01:33:20.512Z,101139.91
2022-08-20T01:35:50.309Z,101150.38
2022-08-20T01:38:18.848Z,101138.63
2022-08-20T01:41:11.769Z,101144.06
2022-08-20T01:43:41.543Z,101143.06
2022-08-20T01:46:11.702Z,101153.44
2022-08-20T01:48:42.644Z,101143.44
2022-08-20T01:51:16.065Z,101149.16
2022-08-20T01:53:48.259Z,101154.16
2022-08-20T01:56:22.653Z,101145.50
2022-08-20T01:58:55.875Z,101151.38
2022-08-20T02:01:34.589Z,101159.44
2022-08-20T02:04:16.893Z,101162.97
2022-08-20T02:06:56.130Z,101158.06
2022-08-20T02:09:27.217Z,101164.81
2022-08-20T02:11:57.979Z,101156.38
2022-08-20T02:14:27.296Z,101159.06
2022-08-20T02:16:58.464Z,101159.09
2022-08-20T02:19:34.236Z,101164.22
2022-08-20T02:22:10.204Z,101160.63
2022-08-20T02:24:38.551Z,101154.72
2022-08-20T02:27:08.366Z,101159.31
2022-08-20T02:29:36.794Z,101157.75
2022-08-20T02:32:24.352Z,101160.78
2022-08-20T02:34:54.807Z,101160.25
2022-08-20T02:37:23.188Z,101158.59
2022-08-20T02:39:51.552Z,101152.84
2022-08-20T02:42:21.357Z,101145.09
2022-08-20T02:44:49.704Z,101148.41
2022-08-20T02:47:18.296Z,101142.72
2022-08-20T02:49:46.650Z,101143.13
2022-08-20T02:52:15.021Z,101150.53
2022-08-20T02:54:43.370Z,101144.34
2022-08-20T02:57:14.876Z,101149.78
2022-08-20T02:59:45.232Z,101150.06
2022-08-20T03:02:13.667Z,101153.19
2022-08-20T03:04:42.894Z,101149.63
2022-08-20T03:07:13.758Z,101155.69
2022-08-20T03:09:42.415Z,101146.81
2022-08-20T03:12:11.129Z,101158.25
2022-08-20T03:14:39.660Z,101146.25
2022-08-20T03:17:09.580Z,101150.25
2022-08-20T03:19:37.940Z,101150.66
2022-08-20T03:22:06.571Z,101146.09
2022-08-20T03:24:34.871Z,101134.47
2022-08-20T03:27:03.261Z,101139.75
2022-08-20T03:29:31.573Z,101133.13
2022-08-20T03:31:59.984Z,101147.34
2022-08-20T03:34:29.745Z,101131.75
2022-08-20T03:36:58.112Z,101145.84
2022-08-20T03:39:26.455Z,101146.38
2022-08-20T03:41:55.275Z,101143.31
2022-08-20T03:44:23.672Z,101134.41
2022-08-20T03:46:52.007Z,101138.25
2022-08-20T03:49:20.368Z,101132.59
2022-08-20T03:51:58.052Z,101133.59
2022-08-20T03:54:27.309Z,101132.75
2022-08-20T03:57:01.416Z,101132.94
2022-08-20T03:59:29.983Z,101131.31
2022-08-20T04:01:58.362Z,101128.00
2022-08-20T04:04:26.946Z,101130.22
2022-08-20T04:06:56.819Z,101135.56
2022-08-20T04:09:25.388Z,101144.78
2022-08-20T04:12:00.281Z,101139.88
2022-08-20T04:14:29.325Z,101136.50
2022-08-20T04:16:58.670Z,101136.50
2022-08-20T04:19:29.204Z,101150.91
2022-08-20T04:22:02.263Z,101150.81
2022-08-20T04:24:32.541Z,101151.78
2022-08-20T04:27:02.763Z,101153.97
2022-08-20T04:29:34.897Z,101158.25
2022-08-20T04:32:05.797Z,101160.16
2022-08-20T04:34:35.667Z,101168.81
2022-08-20T04:37:06.289Z,101170.81
2022-08-20T04:40:06.283Z,101168.66
2022-08-20T04:42:37.063Z,101171.53
2022-08-20T04:45:07.771Z,101176.44
2022-08-20T04:47:36.598Z,101173.00
2022-08-20T04:50:09.326Z,101184.78
2022-08-20T04:52:41.117Z,101182.06
2022-08-20T04:55:11.019Z,101182.47
2022-08-20T04:57:39.674Z,101187.00
2022-08-20T05:00:15.182Z,101190.03
2022-08-20T05:02:43.658Z,101189.19
2022-08-20T05:05:14.428Z,101191.31
2022-08-20T05:07:46.977Z,101188.66
2022-08-20T05:10:18.244Z,101193.25
2022-08-20T05:12:53.767Z,101192.63
2022-08-20T05:15:26.168Z,101194.63
2022-08-20T05:18:00.706Z,101191.25
2022-08-20T05:20:32.176Z,101192.16
2022-08-20T05:23:03.278Z,101203.97
2022-08-20T05:25:32.515Z,101199.56
2022-08-20T05:28:02.400Z,101189.91
2022-08-20T05:30:34.104Z,101189.00
2022-08-20T05:33:03.492Z,101184.56
2022-08-20T05:35:33.343Z,101197.31
2022-08-20T05:38:03.295Z,101194.25
2022-08-20T05:40:31.632Z,101190.66
2022-08-20T05:42:59.959Z,101193.94
2022-08-20T05:45:28.610Z,101200.53
2022-08-20T05:47:58.656Z,101204.09
2022-08-20T05:50:31.811Z,101202.75
2022-08-20T05:53:01.508Z,101207.72
2022-08-20T05:55:31.535Z,101207.03
2022-08-20T05:58:00.424Z,101210.88
2022-08-20T06:00:30.188Z,101214.81
2022-08-20T06:03:16.241Z,101218.47
2022-08-20T06:05:44.928Z,101218.31
2022-08-20T06:08:14.360Z,101213.75
2022-08-20T06:10:45.141Z,101213.00
2022-08-20T06:13:13.828Z,101210.72
2022-08-20T06:15:43.017Z,101207.66
2022-08-20T06:18:16.657Z,101206.41
2022-08-20T06:20:56.899Z,101212.50
2022-08-20T06:23:27.639Z,101204.88
2022-08-20T06:26:28.985Z,101200.34
2022-08-20T06:28:59.251Z,101206.63
2022-08-20T06:31:28.381Z,101207.13
2022-08-20T06:33:57.240Z,101204.16
2022-08-20T06:36:26.228Z,101206.09
2022-08-20T06:38:58.446Z,101208.53
2022-08-20T06:41:36.823Z,101212.81
2022-08-20T06:44:06.598Z,101216.78
2022-08-20T06:46:36.219Z,101211.50
2022-08-20T06:49:05.441Z,101216.19
2022-08-20T06:51:34.235Z,101217.41
2022-08-20T06:54:02.593Z,101221.56
2022-08-20T06:56:32.358Z,101218.09
2022-08-20T06:59:01.686Z,101225.50
2022-08-20T07:01:30.147Z,101226.56
2022-08-20T07:03:59.676Z,101225.63
2022-08-20T07:06:28.799Z,101231.81
2022-08-20T07:08:57.263Z,101230.69
2022-08-20T07:11:28.699Z,101227.28
2022-08-20T07:13:59.477Z,101229.13
2022-08-20T07:16:28.913Z,101225.81
2022-08-20T07:18:58.311Z,101238.31
2022-08-20T07:21:26.825Z,101235.38
2022-08-20T07:23:55.192Z,101238.19
2022-08-20T07:26:24.554Z,101250.13
2022-08-20T07:28:52.939Z,101245.75
2022-08-20T07:31:39.992Z,101248.22
2022-08-20T07:34:11.766Z,101245.38
2022-08-20T07:36:40.411Z,101250.75
2022-08-20T07:39:08.746Z,101247.84
2022-08-20T07:41:37.789Z,101250.88
2022-08-20T07:44:06.287Z,101260.91
2022-08-20T07:46:36.241Z,101262.78
2022-08-20T07:49:09.374Z,101269.41
2022-08-20T07:51:37.878Z,101270.59
2022-08-20T07:54:06.486Z,101267.19
2022-08-20T07:56:34.906Z,101269.84
2022-08-20T07:59:04.937Z,101272.97
2022-08-20T08:01:35.285Z,101272.97
2022-08-20T08:04:04.671Z,101275.53
2022-08-20T08:06:33.913Z,101283.94
2022-08-20T08:09:07.901Z,101282.50
2022-08-20T08:11:46.474Z,101282.50
2022-08-20T08:14:17.273Z,101289.13
2022-08-20T08:16:47.290Z,101285.03
2022-08-20T08:19:19.437Z,101288.84
2022-08-20T08:21:47.974Z,101285.81
2022-08-20T08:24:21.029Z,101294.66
2022-08-20T08:26:52.595Z,101291.78
2022-08-20T08:29:20.950Z,101292.50
2022-08-20T08:31:50.699Z,101289.41
2022-08-20T08:34:19.037Z,101293.78
2022-08-20T08:36:47.413Z,101301.13
2022-08-20T08:39:16.481Z,101299.88
2022-08-20T08:41:49.942Z,101301.84
2022-08-20T08:44:24.103Z,101296.72
2022-08-20T08:46:58.007Z,101292.91
2022-08-20T08:49:37.306Z,101296.50
2022-08-20T08:52:14.756Z,101301.97
2022-08-20T08:54:48.894Z,101306.56
2022-08-20T08:57:17.980Z,101306.03
2022-08-20T09:00:02.348Z,101315.75
2022-08-20T09:02:36.443Z,101318.19
2022-08-20T09:05:14.735Z,101309.38
2022-08-20T09:07:46.376Z,101311.25
2022-08-20T09:10:14.752Z,101321.09
2022-08-20T09:12:47.502Z,101328.34
2022-08-20T09:15:16.702Z,101320.41
2022-08-20T09:17:46.393Z,101320.53
2022-08-20T09:20:14.728Z,101318.88
2022-08-20T09:22:43.063Z,101328.25
2022-08-20T09:25:11.542Z,101328.91
2022-08-20T09:27:41.442Z,101326.94
2022-08-20T09:30:13.549Z,101328.69
2022-08-20T09:32:42.690Z,101333.97
2022-08-20T09:35:13.397Z,101333.25
2022-08-20T09:37:41.816Z,101334.38
2022-08-20T09:40:12.077Z,101334.75
2022-08-20T09:42:42.059Z,101332.91
2022-08-20T09:45:12.905Z,101332.44
2022-08-20T09:47:55.081Z,101340.34
2022-08-20T09:50:27.710Z,101351.25
2022-08-20T09:52:58.780Z,101337.28
2022-08-20T09:55:34.107Z,101336.69
2022-08-20T09:58:04.067Z,101343.47
2022-08-20T10:00:32.499Z,101341.06
2022-08-20T10:03:02.055Z,101339.13
2022-08-20T10:05:31.795Z,101332.94
2022-08-20T10:08:00.596Z,101343.31
2022-08-20T10:10:28.925Z,101336.47
2022-08-20T10:12:57.239Z,101344.38
2022-08-20T10:15:25.536Z,101354.78
2022-08-20T10:17:54.055Z,101349.69
2022-08-20T10:20:22.612Z,101343.28
2022-08-20T10:22:52.585Z,101339.72
2022-08-20T10:25:21.431Z,101352.22
2022-08-20T10:27:49.888Z,101355.47
2022-08-20T10:30:18.599Z,101353.44
2022-08-20T10:32:47.273Z,101359.94
2022-08-20T10:35:16.154Z,101364.16
2022-08-20T10:37:45.168Z,101366.16
2022-08-20T10:40:16.060Z,101355.31
2022-08-20T10:42:45.224Z,101357.81
2022-08-20T10:45:16.477Z,101349.34
2022-08-20T10:47:45.733Z,101354.66
2022-08-20T10:50:17.133Z,101350.91
2022-08-20T10:52:45.803Z,101356.78
2022-08-20T10:55:15.673Z,101362.69
2022-08-20T10:57:44.729Z,101357.22
2022-08-20T11:00:17.286Z,101354.03
2022-08-20T11:02:45.777Z,101364.22
2022-08-20T11:05:14.372Z,101362.50
2022-08-20T11:07:59.712Z,101364.94
2022-08-20T11:10:34.024Z,101360.97
2022-08-20T11:13:02.899Z,101368.97
2022-08-20T11:15:31.759Z,101361.34
2022-08-20T11:18:00.273Z,101367.78
2022-08-20T11:20:28.944Z,101360.13
2022-08-20T11:22:57.655Z,101367.16
2022-08-20T11:25:28.194Z,101363.56
2022-08-20T11:27:58.409Z,101369.25
2022-08-20T11:30:30.249Z,101363.06
2022-08-20T11:32:59.644Z,101371.59
2022-08-20T11:35:48.970Z,101367.91
2022-08-20T11:38:19.046Z,101365.56
2022-08-20T11:40:48.817Z,101373.22
2022-08-20T11:43:18.196Z,101366.06
2022-08-20T11:45:50.776Z,101366.56
2022-08-20T11:48:19.467Z,101369.16
2022-08-20T11:50:48.639Z,101365.38
2022-08-20T11:53:17.501Z,101364.63
2022-08-20T11:55:45.992Z,101364.34
2022-08-20T11:58:15.694Z,101368.63
2022-08-20T12:00:44.060Z,101366.78
2022-08-20T12:03:12.807Z,101366.09
2022-08-20T12:05:44.447Z,101369.09
2022-08-20T12:08:25.327Z,101358.41
2022-08-20T12:10:58.182Z,101365.44
2022-08-20T12:13:30.765Z,101362.41
2022-08-20T12:16:15.788Z,101357.50
2022-08-20T12:18:44.222Z,101353.47
2022-08-20T12:21:13.297Z,101352.88
2022-08-20T12:23:41.738Z,101348.41
2022-08-20T12:26:10.082Z,101344.66
2022-08-20T12:28:39.875Z,101348.34
2022-08-20T12:31:08.378Z,101344.75
2022-08-20T12:33:36.710Z,101347.66
2022-08-20T12:36:06.143Z,101349.91
2022-08-20T12:38:34.453Z,101349.84
2022-08-20T12:41:02.749Z,101342.31
2022-08-20T12:43:31.107Z,101341.81
2022-08-20T12:46:00.810Z,101337.50
2022-08-20T12:48:29.131Z,101335.56
2022-08-20T12:50:57.475Z,101336.81
2022-08-20T12:53:25.810Z,101332.41
2022-08-20T12:55:54.149Z,101334.25
2022-08-20T12:58:22.470Z,101332.22
2022-08-20T13:00:51.475Z,101330.78
2022-08-20T13:03:21.871Z,101331.03
2022-08-20T13:05:50.714Z,101328.84
2022-08-20T13:08:19.461Z,101327.97
2022-08-20T13:10:48.630Z,101321.19
2022-08-20T13:13:20.864Z,101327.41
2022-08-20T13:15:50.141Z,101321.50
2022-08-20T13:18:20.146Z,101322.75
2022-08-20T13:20:48.755Z,101320.59
2022-08-20T13:23:17.372Z,101318.28
2022-08-20T13:25:45.693Z,101321.09
2022-08-20T13:28:13.994Z,101316.50
2022-08-20T13:30:42.354Z,101313.47
2022-08-20T13:33:11.075Z,101309.94
2022-08-20T13:35:40.840Z,101308.47
2022-08-20T13:38:09.211Z,101310.56
2022-08-20T13:40:37.591Z,101308.97
2022-08-20T13:43:07.281Z,101312.97
2022-08-20T13:45:36.932Z,101308.88
2022-08-20T13:48:07.578Z,101312.72
2022-08-20T13:50:46.949Z,101303.31
2022-08-20T13:53:17.218Z,101307.03
2022-08-20T13:55:46.460Z,101313.25
2022-08-20T13:58:14.880Z,101307.94
2022-08-20T14:00:43.422Z,101312.56
2022-08-20T14:03:13.116Z,101313.34
2022-08-20T14:05:44.143Z,101316.28
2022-08-20T14:08:15.980Z,101309.53
2022-08-20T14:10:45.613Z,101308.22
2022-08-20T14:13:20.058Z,101298.03
2022-08-20T14:15:48.523Z,101299.25
2022-08-20T14:18:17.776Z,101290.56
2022-08-20T14:20:47.922Z,101307.44
2022-08-20T14:23:16.617Z,101298.88
2022-08-20T14:25:49.476Z,101298.72
2022-08-20T14:28:21.003Z,101299.25
2022-08-20T14:30:53.182Z,101296.66
2022-08-20T14:33:23.255Z,101298.44
2022-08-20T14:35:53.732Z,101296.91
2022-08-20T14:38:22.371Z,101300.47
2022-08-20T14:40:50.903Z,101302.03
2022-08-20T14:43:19.451Z,101298.81
2022-08-20T14:45:47.889Z,101303.22
2022-08-20T14:48:16.249Z,101296.47
2022-08-20T14:50:44.610Z,101297.94
2022-08-20T14:53:14.275Z,101297.94
2022-08-20T14:55:42.619Z,101300.66
2022-08-20T14:58:13.756Z,101303.16
2022-08-20T15:00:43.744Z,101290.09
2022-08-20T15:03:13.422Z,101295.19
2022-08-20T15:05:41.926Z,101300.47
2022-08-20T15:08:11.033Z,101292.84
2022-08-20T15:10:41.035Z,101303.03
2022-08-20T15:13:10.041Z,101296.94
2022-08-20T15:15:39.473Z,101304.69
2022-08-20T15:18:08.993Z,101306.97
2022-08-20T15:20:38.530Z,101297.06
2022-08-20T15:23:06.998Z,101299.13
2022-08-20T15:25:37.991Z,101288.97
2022-08-20T15:28:10.638Z,101300.56
2022-08-20T15:30:42.437Z,101296.50
2022-08-20T15:33:11.509Z,101293.75
2022-08-20T15:35:40.067Z,101304.78
2022-08-20T15:38:08.415Z,101303.84
2022-08-20T15:40:37.113Z,101303.84
2022-08-20T15:43:07.696Z,101289.94
2022-08-20T15:45:37.399Z,101293.50
2022-08-20T15:48:13.682Z,101303.22
2022-08-20T15:51:15.663Z,101298.75
2022-08-20T15:53:56.619Z,101294.16
2022-08-20T15:56:58.283Z,101297.78
2022-08-20T16:00:10.279Z,101302.84
2022-08-20T16:03:39.940Z,101305.56
2022-08-20T16:06:17.044Z,101308.78
2022-08-20T16:09:04.367Z,101304.50
2022-08-20T16:11:48.801Z,101292.81
2022-08-20T16:14:22.460Z,101293.44
2022-08-20T16:17:01.664Z,101294.13
2022-08-20T16:19:43.052Z,101292.66
2022-08-20T16:22:17.205Z,101301.22
2022-08-20T16:24:45.563Z,101288.97
2022-08-20T16:27:25.818Z,101303.91
2022-08-20T16:30:03.098Z,101298.47
2022-08-20T16:32:43.870Z,101291.59
2022-08-20T16:35:31.830Z,101292.59
2022-08-20T16:38:11.335Z,101296.53
2022-08-20T16:40:49.712Z,101297.91
2022-08-20T16:43:26.428Z,101294.41
2022-08-20T16:46:02.791Z,101288.97
2022-08-20T16:48:39.857Z,101294.38
2022-08-20T16:51:15.045Z,101302.75
2022-08-20T16:53:43.441Z,101301.78
2022-08-20T16:56:11.879Z,101293.75
2022-08-20T16:58:40.745Z,101296.25
2022-08-20T17:01:14.012Z,101295.09
2022-08-20T17:03:51.404Z,101293.78
2022-08-20T17:06:29.527Z,101295.00
2022-08-20T17:08:58.162Z,101298.09
2022-08-20T17:11:33.064Z,101305.66
2022-08-20T17:14:13.434Z,101295.13
2022-08-20T17:16:45.947Z,101296.53
2022-08-20T17:19:31.643Z,101305.00
2022-08-20T17:22:12.469Z,101301.75
2022-08-20T17:24:40.966Z,101304.28
2022-08-20T17:27:15.024Z,101303.44
2022-08-20T17:29:54.149Z,101303.16
2022-08-20T17:32:26.847Z,101307.22
2022-08-20T17:34:59.976Z,101315.16
2022-08-20T17:37:33.610Z,101310.13
2022-08-20T17:40:10.996Z,101315.06
2022-08-20T17:42:50.913Z,101315.75
2022-08-20T17:45:26.443Z,101312.34
2022-08-20T17:47:57.678Z,101314.72
2022-08-20T17:50:33.572Z,101312.50
2022-08-20T17:53:14.260Z,101321.00
2022-08-20T17:55:43.293Z,101322.91
2022-08-20T17:58:16.290Z,101317.78
2022-08-20T18:00:45.457Z,101316.34
2022-08-20T18:03:22.257Z,101321.44
2022-08-20T18:06:00.160Z,101322.72
2022-08-20T18:08:40.667Z,101326.09
2022-08-20T18:11:23.766Z,101320.59
2022-08-20T18:14:30.570Z,101325.44
2022-08-20T18:17:16.802Z,101326.66
2022-08-20T18:20:37.428Z,101329.97
2022-08-20T18:23:13.373Z,101334.84
2022-08-20T18:25:47.686Z,101332.56
2022-08-20T18:28:20.861Z,101339.00
2022-08-20T18:30:53.648Z,101334.69
2022-08-20T18:33:34.728Z,101342.66
2022-08-20T18:36:11.451Z,101337.09
2022-08-20T18:38:43.838Z,101351.53
2022-08-20T18:41:28.367Z,101345.78
2022-08-20T18:44:08.010Z,101341.06
2022-08-20T18:46:38.922Z,101347.03
2022-08-20T18:49:09.345Z,101339.50
2022-08-20T18:51:49.966Z,101339.94
2022-08-20T18:54:29.154Z,101342.88
2022-08-20T18:57:06.488Z,101347.75
2022-08-20T18:59:41.561Z,101347.75
2022-08-20T19:02:23.712Z,101346.97
2022-08-20T19:05:02.099Z,101345.75
2022-08-20T19:07:45.810Z,101350.13
2022-08-20T19:10:47.536Z,101345.06
2022-08-20T19:14:00.852Z,101346.44
2022-08-20T19:16:37.334Z,101349.22
2022-08-20T19:19:05.894Z,101352.56
2022-08-20T19:21:36.462Z,101357.25
2022-08-20T19:24:08.578Z,101365.16
2022-08-20T19:26:47.646Z,101357.19
2022-08-20T19:29:22.104Z,101362.19
2022-08-20T19:31:50.655Z,101362.88
2022-08-20T19:34:24.223Z,101363.66
2022-08-20T19:37:02.136Z,101369.81
2022-08-20T19:39:48.044Z,101363.94
2022-08-20T19:42:24.137Z,101363.94
2022-08-20T19:44:57.489Z,101371.22
2022-08-20T19:47:32.828Z,101365.63
2022-08-20T19:50:17.244Z,101379.44
2022-08-20T19:52:57.923Z,101375.56
2022-08-20T19:55:30.871Z,101382.53
2022-08-20T19:58:05.737Z,101384.78
2022-08-20T20:00:42.758Z,101386.69
2022-08-20T20:03:12.633Z,101385.72
2022-08-20T20:05:51.472Z,101385.03
2022-08-20T20:08:20.806Z,101394.38
2022-08-20T20:10:55.856Z,101381.50
2022-08-20T20:13:37.691Z,101391.19
2022-08-20T20:16:08.837Z,101391.19
2022-08-20T20:18:43.041Z,101393.84
2022-08-20T20:21:16.521Z,101388.69
2022-08-20T20:23:54.684Z,101393.69
2022-08-20T20:26:23.124Z,101389.44
2022-08-20T20:29:02.014Z,101387.16
2022-08-20T20:31:34.397Z,101383.78
2022-08-20T20:34:13.041Z,101383.31
2022-08-20T20:36:43.736Z,101383.63
2022-08-20T20:39:30.118Z,101389.50
2022-08-20T20:42:02.135Z,101380.81
2022-08-20T20:44:37.620Z,101385.56
2022-08-20T20:47:17.841Z,101378.09
2022-08-20T20:49:52.000Z,101380.31
2022-08-20T20:52:24.665Z,101380.75
2022-08-20T20:55:04.910Z,101377.56
2022-08-20T20:57:37.957Z,101382.13
2022-08-20T21:00:13.429Z,101375.19
2022-08-20T21:02:41.980Z,101372.84
2022-08-20T21:05:12.589Z,101372.69
2022-08-20T21:07:50.630Z,101368.00
2022-08-20T21:10:21.280Z,101367.06
2022-08-20T21:12:52.915Z,101372.91
2022-08-20T21:15:27.966Z,101373.88
2022-08-20T21:18:01.076Z,101381.94
2022-08-20T21:20:29.751Z,101370.16
2022-08-20T21:22:59.021Z,101379.41
2022-08-20T21:25:28.819Z,101370.22
2022-08-20T21:27:57.675Z,101372.88
2022-08-20T21:30:28.602Z,101372.63
2022-08-20T21:32:57.227Z,101380.59
2022-08-20T21:35:25.641Z,101381.53
2022-08-20T21:37:54.256Z,101389.09
2022-08-20T21:40:22.744Z,101381.38
2022-08-20T21:42:57.412Z,101379.75
2022-08-20T21:45:28.460Z,101380.13
2022-08-20T21:47:57.524Z,101381.22
2022-08-20T21:50:27.383Z,101380.88
2022-08-20T21:52:59.860Z,101382.22
2022-08-20T21:55:35.116Z,101380.94
2022-08-20T21:58:07.326Z,101388.56
2022-08-20T22:00:55.465Z,101379.38
2022-08-20T22:03:26.415Z,101386.81
2022-08-20T22:05:55.865Z,101379.94
2022-08-20T22:08:26.667Z,101381.94
2022-08-20T22:10:58.226Z,101387.16
2022-08-20T22:13:31.513Z,101376.75
2022-08-20T22:16:02.466Z,101375.94
2022-08-20T22:18:31.224Z,101377.75
2022-08-20T22:21:00.615Z,101375.75
2022-08-20T22:23:30.016Z,101380.25
2022-08-20T22:25:58.330Z,101383.38
2022-08-20T22:28:26.774Z,101380.47
2022-08-20T22:30:55.239Z,101381.59
2022-08-20T22:33:25.491Z,101381.09
2022-08-20T22:35:57.751Z,101382.84
2022-08-20T22:38:26.297Z,101375.84
2022-08-20T22:40:55.083Z,101390.03
2022-08-20T22:43:24.347Z,101380.72
2022-08-20T22:45:56.647Z,101381.44
2022-08-20T22:48:27.480Z,101389.59
2022-08-20T22:50:57.248Z,101385.31
2022-08-20T22:53:27.655Z,101386.97
2022-08-20T22:55:56.610Z,101394.81
2022-08-20T22:58:31.055Z,101385.84
2022-08-20T23:01:02.316Z,101385.84
2022-08-20T23:03:40.254Z,101381.13
2022-08-20T23:06:10.565Z,101394.50
2022-08-20T23:08:39.167Z,101395.16
2022-08-20T23:11:07.875Z,101385.53
2022-08-20T23:13:36.298Z,101379.81
2022-08-20T23:16:06.167Z,101376.97
2022-08-20T23:18:36.452Z,101375.03
2022-08-20T23:21:05.195Z,101373.03
2022-08-20T23:23:33.637Z,101371.06
2022-08-20T23:26:02.861Z,101376.88
2022-08-20T23:28:31.606Z,101373.72
2022-08-20T23:31:00.028Z,101365.28
2022-08-20T23:33:28.407Z,101362.06
2022-08-20T23:35:58.629Z,101365.28
2022-08-20T23:38:26.966Z,101362.03
2022-08-20T23:40:55.285Z,101361.19
2022-08-20T23:43:23.667Z,101362.38
2022-08-20T23:45:52.206Z,101358.56
2022-08-20T23:48:21.032Z,101357.59
2022-08-20T23:50:49.359Z,101354.03
2022-08-20T23:53:19.087Z,101355.47
2022-08-20T23:55:47.430Z,101346.50
2022-08-20T23:58:15.800Z,101354.50
